To NAV CANADA Home Page Login to a new session Search on AWWS site Disclaimer Vers la page française équivalente Tips FAQ What's new on the site To the Forecasts and Observations / NOTAM section To "File a Flight Plan" website Publications and other links Update of the User's profile FIC Telephone Numbers My Weather Data Folder Route Weather Data Regional Weather Data Local Weather Data To the Forecasts and Observations / NOTAM section
Request Generated 03/21/2019 at 01:42:14 UTC . Weather information available at that time is displayed.

METAR/TAF

SANDSPIT/BC    (show WxCam)

METAR CYZP 210100Z AUTO 29005KT 9SM SCT130 08/05 A2988 RMK SLP122=
METAR CYZP 210000Z AUTO 10005KT 9SM BKN140 09/05 A2990 RMK SLP126=
METAR CYZP 202300Z AUTO 08003KT 060V120 9SM SCT140 11/04 A2990 RMK SLP127=

TAF CYZP 210038Z 2101/2113 VRB03KT P6SM BKN120 BKN200
BECMG 2104/2106 SCT080 BKN150
FM211100 VRB03KT P6SM BKN250
RMK FCST BASED ON AUTO OBS. NXT FCST BY 210700Z=
Your time UTC time
Weather data provided by Environment Canada and NAV CANADA